TimeMDT,TemperatureF,Dew PointF,Humidity,Sea Level PressureIn,VisibilityMPH,Wind Direction,Wind SpeedMPH,Gust SpeedMPH,PrecipitationIn,Events,Conditions,WindDirDegrees,DateUTC
12:00 AM,44,36,66,,,Calm,Calm,,,,,,2013-10-21 06:00:00
12:00 AM,44.4,36.3,73,-9999,-9999.0,Variable,3.5,-,N/A,,Unknown,0,2013-10-21 06:00:00
1:00 AM,41.2,35.6,81,-9999,-9999.0,Variable,4.6,-,N/A,,Unknown,0,2013-10-21 07:00:00
2:00 AM,42.6,35.8,77,-9999,-9999.0,Variable,4.6,-,N/A,,Unknown,0,2013-10-21 08:00:00
3:00 AM,43.7,36.0,74,-9999,-9999.0,Variable,4.6,-,N/A,,Unknown,0,2013-10-21 09:00:00
4:00 AM,45.0,35.4,69,-9999,-9999.0,Variable,6.9,-,N/A,,Unknown,0,2013-10-21 10:00:00
5:00 AM,45.1,36.0,70,-9999,-9999.0,Variable,4.6,-,N/A,,Unknown,0,2013-10-21 11:00:00
6:00 AM,46,36,59,,,Calm,Calm,,,,,,2013-10-21 12:00:00
6:00 AM,46.4,36.3,68,-9999,-9999.0,Variable,6.9,-,N/A,,Unknown,0,2013-10-21 12:00:00
7:00 AM,46.4,36.1,67,-9999,-9999.0,North,-9999.0,-,N/A,,Unknown,0,2013-10-21 13:00:00
8:00 AM,48.9,37.0,64,-9999,-9999.0,North,-9999.0,-,N/A,,Unknown,0,2013-10-21 14:00:00
9:00 AM,50.0,37.6,62,-9999,-9999.0,North,-9999.0,-,N/A,,Unknown,0,2013-10-21 15:00:00
10:00 AM,52.5,38.5,59,-9999,-9999.0,North,-9999.0,-,N/A,,Unknown,0,2013-10-21 16:00:00
11:00 AM,54.9,38.5,54,-9999,-9999.0,North,-9999.0,-,N/A,,Unknown,0,2013-10-21 17:00:00
12:00 PM,58,38,36,,,Calm,Calm,,,,,,2013-10-21 18:00:00
12:00 PM,57.7,38.3,48,-9999,-9999.0,North,-9999.0,-,N/A,,Unknown,0,2013-10-21 18:00:00
1:00 PM,61.0,38.7,44,-9999,-9999.0,North,-9999.0,-,N/A,,Unknown,0,2013-10-21 19:00:00
2:00 PM,63.1,37.8,39,-9999,-9999.0,North,-9999.0,-,N/A,,Unknown,0,2013-10-21 20:00:00
3:00 PM,64.0,36.3,36,-9999,-9999.0,North,-9999.0,-,N/A,,Unknown,0,2013-10-21 21:00:00
4:00 PM,65.5,35.8,33,-9999,-9999.0,North,-9999.0,-,N/A,,Unknown,0,2013-10-21 22:00:00
5:00 PM,63.0,37.2,38,-9999,-9999.0,North,-9999.0,-,N/A,,Unknown,0,2013-10-21 23:00:00
6:00 PM,61,37,30,,,Calm,Calm,,,,,,2013-10-22 00:00:00
6:00 PM,61.3,37.4,41,-9999,-9999.0,Variable,6.9,-,N/A,,Unknown,0,2013-10-22 00:00:00
7:00 PM,52.0,37.6,58,-9999,-9999.0,Variable,4.6,-,N/A,,Unknown,0,2013-10-22 01:00:00
8:00 PM,50.9,37.8,61,-9999,-9999.0,Variable,4.6,-,N/A,,Unknown,0,2013-10-22 02:00:00
9:00 PM,48.9,38.5,67,-9999,-9999.0,Variable,3.5,-,N/A,,Unknown,0,2013-10-22 03:00:00
10:00 PM,48.6,38.5,68,-9999,-9999.0,Variable,2.3,-,N/A,,Unknown,0,2013-10-22 04:00:00
11:00 PM,45.0,37.0,74,-9999,-9999.0,Variable,3.5,-,N/A,,Unknown,0,2013-10-22 05:00:00